createdAt,value
2019-05-23T00:00:45.182Z,13.63
2019-05-23T00:01:45.161Z,13.64
2019-05-23T00:02:45.163Z,13.57
2019-05-23T00:03:45.145Z,13.59
2019-05-23T00:04:45.136Z,13.69
2019-05-23T00:05:45.131Z,13.63
2019-05-23T00:06:45.127Z,13.67
2019-05-23T00:07:45.113Z,13.59
2019-05-23T00:08:45.114Z,13.66
2019-05-23T00:09:45.543Z,13.62
2019-05-23T00:10:45.088Z,13.62
2019-05-23T00:11:45.488Z,13.59
2019-05-23T00:12:45.116Z,13.6
2019-05-23T00:13:45.078Z,13.54
2019-05-23T00:14:45.063Z,13.52
2019-05-23T00:15:45.052Z,13.54
2019-05-23T00:16:45.098Z,13.42
2019-05-23T00:17:45.035Z,13.41
2019-05-23T00:18:45.050Z,13.42
2019-05-23T00:19:45.032Z,13.51
2019-05-23T00:20:45.025Z,13.46
2019-05-23T00:21:45.008Z,13.42
2019-05-23T00:22:45.001Z,13.38
2019-05-23T00:23:45.008Z,13.44
2019-05-23T00:24:44.985Z,13.36
2019-05-23T00:25:44.980Z,13.42
2019-05-23T00:26:44.967Z,13.46
2019-05-23T00:27:44.963Z,13.39
2019-05-23T00:28:44.962Z,13.42
2019-05-23T00:29:45.315Z,13.41
2019-05-23T00:30:44.946Z,13.36
2019-05-23T00:31:44.950Z,13.32
2019-05-23T00:32:44.939Z,13.26
2019-05-23T00:33:44.931Z,13.33
2019-05-23T00:34:44.912Z,13.33
2019-05-23T00:35:44.904Z,13.26
2019-05-23T00:36:44.957Z,13.26
2019-05-23T00:37:44.891Z,13.2
2019-05-23T00:38:44.875Z,13.29
2019-05-23T00:39:44.869Z,13.22
2019-05-23T00:40:44.863Z,13.26
2019-05-23T00:41:44.857Z,13.26
2019-05-23T00:42:44.856Z,13.28
2019-05-23T00:43:44.838Z,13.26
2019-05-23T00:44:44.840Z,13.2
2019-05-23T00:45:44.847Z,13.23
2019-05-23T00:46:44.828Z,13.19
2019-05-23T00:47:44.828Z,13.25
2019-05-23T00:48:44.797Z,13.15
2019-05-23T00:49:44.799Z,13.15
2019-05-23T00:50:44.785Z,13.15
2019-05-23T00:51:44.538Z,13.12
2019-05-23T00:52:44.787Z,13.1
2019-05-23T00:53:44.565Z,13.15
2019-05-23T00:54:44.749Z,13.17
2019-05-23T00:55:44.756Z,13.1
2019-05-23T00:56:44.735Z,13.12
2019-05-23T00:57:44.792Z,13.11
2019-05-23T00:58:44.724Z,13.17
2019-05-23T00:59:44.707Z,13.08
2019-05-23T01:00:44.708Z,13.1
2019-05-23T01:01:44.733Z,13.08
2019-05-23T01:02:44.693Z,13.12
2019-05-23T01:03:44.686Z,13.12
2019-05-23T01:04:44.675Z,13.15
2019-05-23T01:05:44.668Z,13.1
2019-05-23T01:06:44.667Z,13.11
2019-05-23T01:07:44.655Z,13.12
2019-05-23T01:08:44.728Z,13.14
2019-05-23T01:09:44.633Z,13.14
2019-05-23T01:10:44.626Z,13.15
2019-05-23T01:11:44.630Z,13.07
2019-05-23T01:12:44.612Z,13.14
2019-05-23T01:13:44.610Z,13.1
2019-05-23T01:14:44.592Z,13.14
2019-05-23T01:15:44.646Z,13.04
2019-05-23T01:16:44.592Z,13.03
2019-05-23T01:17:44.569Z,13.07
2019-05-23T01:18:44.561Z,13.07
2019-05-23T01:19:44.550Z,12.97
2019-05-23T01:20:44.548Z,13.11
2019-05-23T01:21:44.543Z,13.08
2019-05-23T01:22:44.528Z,13.01
2019-05-23T01:23:44.532Z,13.04
2019-05-23T01:24:44.514Z,13.07
2019-05-23T01:25:44.509Z,13.1
2019-05-23T01:26:44.505Z,13.14
2019-05-23T01:27:44.244Z,13.01
2019-05-23T01:28:44.504Z,13.03
2019-05-23T01:29:49.459Z,13.01
2019-05-23T01:30:44.493Z,13.03
2019-05-23T01:31:44.513Z,13.11
2019-05-23T01:32:44.452Z,13.12
2019-05-23T01:33:44.443Z,13.1
2019-05-23T01:34:44.435Z,13.1
2019-05-23T01:35:44.444Z,13.11
2019-05-23T01:36:44.430Z,13.11
2019-05-23T01:37:44.438Z,13.11
2019-05-23T01:38:44.404Z,13.15
2019-05-23T01:39:44.429Z,13.11
2019-05-23T01:40:44.389Z,13.01
2019-05-23T01:41:44.400Z,13.03
2019-05-23T01:42:44.371Z,13
2019-05-23T01:43:44.363Z,13.15
2019-05-23T01:44:44.352Z,13.07
2019-05-23T01:45:44.349Z,13.05
2019-05-23T01:46:44.337Z,13.05
2019-05-23T01:47:44.331Z,13.04
2019-05-23T01:48:44.323Z,13.03
2019-05-23T01:49:44.315Z,13.04
2019-05-23T01:50:44.306Z,13.07
2019-05-23T01:51:44.300Z,13.14
2019-05-23T01:52:44.345Z,13.1
2019-05-23T01:53:44.281Z,13.11
2019-05-23T01:54:44.285Z,13.1
2019-05-23T01:55:44.271Z,13.14
2019-05-23T01:56:44.265Z,13.1
2019-05-23T01:57:44.045Z,13.1
2019-05-23T01:58:44.245Z,13.15
2019-05-23T01:59:43.747Z,13.14
2019-05-23T02:00:44.230Z,13.14
2019-05-23T02:01:44.233Z,13.14
2019-05-23T02:02:44.226Z,13.14
2019-05-23T02:03:44.249Z,13.07
2019-05-23T02:04:44.195Z,13.07
2019-05-23T02:05:44.191Z,13.05
2019-05-23T02:06:44.185Z,13.1
2019-05-23T02:07:44.182Z,13.04
2019-05-23T02:08:44.197Z,13.01
2019-05-23T02:09:44.164Z,13.11
2019-05-23T02:10:44.167Z,13.03
2019-05-23T02:11:44.160Z,13
2019-05-23T02:12:43.898Z,13.07
2019-05-23T02:13:43.897Z,13.08
2019-05-23T02:14:44.125Z,13.07
2019-05-23T02:15:44.123Z,13.12
2019-05-23T02:16:44.102Z,13.17
2019-05-23T02:17:43.853Z,13.12
2019-05-23T02:18:43.843Z,13.12
2019-05-23T02:19:44.094Z,13.1
2019-05-23T02:20:44.072Z,13.1
2019-05-23T02:21:44.058Z,13.1
2019-05-23T02:22:44.052Z,13.11
2019-05-23T02:23:44.110Z,13.07
2019-05-23T02:24:43.941Z,13.04
2019-05-23T02:25:44.192Z,13.07
2019-05-23T02:26:43.782Z,12.97
2019-05-23T02:27:44.031Z,13.03
2019-05-23T02:28:44.027Z,13.04
2019-05-23T02:29:44.003Z,13.01
2019-05-23T02:30:43.995Z,13.01
2019-05-23T02:31:44.011Z,13.05
2019-05-23T02:32:43.975Z,13.05
2019-05-23T02:33:43.972Z,13.01
2019-05-23T02:34:43.730Z,13.08
2019-05-23T02:35:43.953Z,13.04
2019-05-23T02:36:43.957Z,13.01
2019-05-23T02:37:43.694Z,13.05
2019-05-23T02:38:43.934Z,13.05
2019-05-23T02:39:43.946Z,13.04
2019-05-23T02:40:43.906Z,13.03
2019-05-23T02:41:43.914Z,13
2019-05-23T02:42:43.904Z,13.05
2019-05-23T02:43:43.885Z,12.97
2019-05-23T02:44:43.883Z,13.03
2019-05-23T02:45:43.879Z,13.05
2019-05-23T02:46:43.864Z,13.01
2019-05-23T02:47:43.883Z,12.92
2019-05-23T02:48:43.860Z,12.93
2019-05-23T02:49:43.604Z,12.9
2019-05-23T02:50:43.837Z,12.92
2019-05-23T02:51:43.839Z,12.85
2019-05-23T02:52:43.819Z,12.86
2019-05-23T02:53:43.841Z,12.82
2019-05-23T02:54:43.808Z,12.78
2019-05-23T02:55:43.799Z,12.86
2019-05-23T02:56:43.789Z,12.87
2019-05-23T02:57:43.789Z,12.82
2019-05-23T02:58:43.769Z,12.79
2019-05-23T02:59:43.785Z,12.75
2019-05-23T03:00:58.331Z,12.78
2019-05-23T03:01:43.751Z,12.77
2019-05-23T03:02:43.740Z,12.75
2019-05-23T03:03:43.728Z,12.78
2019-05-23T03:04:43.721Z,12.78
2019-05-23T03:05:43.733Z,12.71
2019-05-23T03:06:43.723Z,12.79
2019-05-23T03:07:43.711Z,12.74
2019-05-23T03:08:43.689Z,12.74
2019-05-23T03:09:43.678Z,12.75
2019-05-23T03:10:43.690Z,12.89
2019-05-23T03:11:43.664Z,12.79
2019-05-23T03:12:43.725Z,12.85
2019-05-23T03:13:43.662Z,12.87
2019-05-23T03:14:43.660Z,12.86
2019-05-23T03:15:43.417Z,12.86
2019-05-23T03:16:43.628Z,12.86
2019-05-23T03:17:43.653Z,12.71
2019-05-23T03:18:43.610Z,12.74
2019-05-23T03:19:43.600Z,12.78
2019-05-23T03:20:43.594Z,12.71
2019-05-23T03:21:43.591Z,12.71
2019-05-23T03:22:43.579Z,12.82
2019-05-23T03:23:43.570Z,12.83
2019-05-23T03:24:43.562Z,12.82
2019-05-23T03:25:43.556Z,12.77
2019-05-23T03:26:43.541Z,12.75
2019-05-23T03:27:43.292Z,12.86
2019-05-23T03:28:43.549Z,12.86
2019-05-23T03:29:43.519Z,12.85
2019-05-23T03:30:43.539Z,12.83
2019-05-23T03:31:43.535Z,12.79
2019-05-23T03:32:44.719Z,12.85
2019-05-23T03:33:43.500Z,12.79
2019-05-23T03:34:43.488Z,12.79
2019-05-23T03:35:43.330Z,12.75
2019-05-23T03:36:43.237Z,12.85
2019-05-23T03:37:43.463Z,12.82
2019-05-23T03:38:43.443Z,12.77
2019-05-23T03:39:43.463Z,12.9
2019-05-23T03:40:43.439Z,12.83
2019-05-23T03:41:43.458Z,12.83
2019-05-23T03:42:43.417Z,12.78
2019-05-23T03:43:43.408Z,12.82
2019-05-23T03:44:43.604Z,12.89
2019-05-23T03:45:44.523Z,12.86
2019-05-23T03:46:43.386Z,12.83
2019-05-23T03:47:43.369Z,12.83
2019-05-23T03:48:43.452Z,12.87
2019-05-23T03:49:43.393Z,12.79
2019-05-23T03:50:43.345Z,12.86
2019-05-23T03:51:43.348Z,12.9
2019-05-23T03:52:43.325Z,12.95
2019-05-23T03:53:43.332Z,12.95
2019-05-23T03:54:43.316Z,12.95
2019-05-23T03:55:43.321Z,12.87
2019-05-23T03:56:43.310Z,13.01
2019-05-23T03:57:43.298Z,12.97
2019-05-23T03:58:43.281Z,12.96
2019-05-23T03:59:43.275Z,13.04
2019-05-23T04:00:43.270Z,13.14
2019-05-23T04:01:52.566Z,13.05
2019-05-23T04:02:43.260Z,13.08
2019-05-23T04:03:45.053Z,13.1
2019-05-23T04:04:43.233Z,13.15
2019-05-23T04:05:43.241Z,13.14
2019-05-23T04:06:43.220Z,13.2
2019-05-23T04:07:43.285Z,13.22
2019-05-23T04:08:42.962Z,13.12
2019-05-23T04:09:43.211Z,13.26
2019-05-23T04:10:43.227Z,13.25
2019-05-23T04:11:43.189Z,13.23
2019-05-23T04:12:43.170Z,13.25
2019-05-23T04:13:43.169Z,13.25
2019-05-23T04:14:43.164Z,13.33
2019-05-23T04:15:43.158Z,13.38
2019-05-23T04:16:43.159Z,13.33
2019-05-23T04:17:43.136Z,13.39
2019-05-23T04:18:43.126Z,13.44
2019-05-23T04:19:43.123Z,13.46
2019-05-23T04:20:42.872Z,13.48
2019-05-23T04:21:43.098Z,13.48
2019-05-23T04:22:43.093Z,13.39
2019-05-23T04:23:42.850Z,13.52
2019-05-23T04:24:43.109Z,13.52
2019-05-23T04:25:43.085Z,13.54
2019-05-23T04:26:43.062Z,13.55
2019-05-23T04:27:43.068Z,13.55
2019-05-23T04:28:43.048Z,13.57
2019-05-23T04:29:43.178Z,13.59
2019-05-23T04:30:43.045Z,13.6
2019-05-23T04:31:43.025Z,13.66
2019-05-23T04:32:43.130Z,13.64
2019-05-23T04:33:43.025Z,13.67
2019-05-23T04:34:43.050Z,13.69
2019-05-23T04:35:43.022Z,13.69
2019-05-23T04:36:43.008Z,13.78
2019-05-23T04:37:42.980Z,13.7
2019-05-23T04:38:42.979Z,13.75
2019-05-23T04:39:42.962Z,13.82
2019-05-23T04:40:42.951Z,13.88
2019-05-23T04:41:42.949Z,13.84
2019-05-23T04:42:42.945Z,13.92
2019-05-23T04:43:42.936Z,13.89
2019-05-23T04:44:46.804Z,13.87
2019-05-23T04:45:42.922Z,13.95
2019-05-23T04:46:42.938Z,13.92
2019-05-23T04:47:42.760Z,13.92
2019-05-23T04:48:42.914Z,13.89
2019-05-23T04:49:42.892Z,13.87
2019-05-23T04:50:42.899Z,13.81
2019-05-23T04:51:42.877Z,13.77
2019-05-23T04:52:42.623Z,13.75
2019-05-23T04:53:42.868Z,13.73
2019-05-23T04:54:42.850Z,13.75
2019-05-23T04:55:42.885Z,13.69
2019-05-23T04:56:42.849Z,13.73
2019-05-23T04:57:42.838Z,13.66
2019-05-23T04:58:42.908Z,13.69
2019-05-23T04:59:42.824Z,13.69
2019-05-23T05:00:42.812Z,13.77
2019-05-23T05:01:42.915Z,13.6
2019-05-23T05:02:42.792Z,13.7
2019-05-23T05:03:42.794Z,13.73
2019-05-23T05:04:42.883Z,13.75
2019-05-23T05:05:43.132Z,13.77
2019-05-23T05:06:42.767Z,14
2019-05-23T05:07:42.757Z,14.18
2019-05-23T05:08:42.752Z,14.27
2019-05-23T05:09:42.757Z,14.27
2019-05-23T05:10:42.748Z,14.36
2019-05-23T05:11:42.733Z,14.37
2019-05-23T05:12:42.725Z,14.54
2019-05-23T05:13:42.721Z,14.7
2019-05-23T05:14:42.708Z,14.81
2019-05-23T05:15:42.732Z,14.92
2019-05-23T05:16:42.711Z,15.09
2019-05-23T05:17:42.700Z,15.01
2019-05-23T05:18:42.698Z,15.2
2019-05-23T05:19:42.683Z,15.23
2019-05-23T05:20:42.693Z,15.28
2019-05-23T05:21:42.696Z,15.32
2019-05-23T05:22:42.745Z,15.41
2019-05-23T05:23:42.661Z,15.36
2019-05-23T05:24:44.825Z,15.36
2019-05-23T05:25:42.650Z,15.34
2019-05-23T05:26:42.660Z,15.44
2019-05-23T05:27:42.648Z,15.41
2019-05-23T05:28:42.640Z,15.49
2019-05-23T05:29:42.686Z,15.76
2019-05-23T05:30:42.709Z,16
2019-05-23T05:31:42.623Z,16.02
2019-05-23T05:32:50.147Z,15.93
2019-05-23T05:33:42.624Z,16
2019-05-23T05:34:42.613Z,16.01
2019-05-23T05:35:42.598Z,16.02
2019-05-23T05:36:42.594Z,15.93
2019-05-23T05:37:42.587Z,15.97
2019-05-23T05:38:42.585Z,16.07
2019-05-23T05:39:42.580Z,16.09
2019-05-23T05:40:42.590Z,16.17
2019-05-23T05:41:42.591Z,16.31
2019-05-23T05:42:42.579Z,16.53
2019-05-23T05:43:42.561Z,16.98
2019-05-23T05:44:42.566Z,17.43
2019-05-23T05:45:42.586Z,17.9
2019-05-23T05:46:42.576Z,18.37
2019-05-23T05:47:42.554Z,18.92
2019-05-23T05:48:42.554Z,19.48
2019-05-23T05:49:46.376Z,20.03
2019-05-23T05:50:42.542Z,20.52
2019-05-23T05:51:42.594Z,20.88
2019-05-23T05:52:42.566Z,21.16
2019-05-23T05:53:42.533Z,21.35
2019-05-23T05:54:42.535Z,21.58
2019-05-23T05:55:42.543Z,21.67
2019-05-23T05:56:42.541Z,21.83
2019-05-23T05:57:42.550Z,22.02
2019-05-23T05:58:42.544Z,22.2
2019-05-23T05:59:42.547Z,22.28
2019-05-23T06:00:42.595Z,22.31
2019-05-23T06:01:42.547Z,22.2
2019-05-23T06:02:42.539Z,22.2
2019-05-23T06:03:42.542Z,22.28
2019-05-23T06:04:42.541Z,22.47
2019-05-23T06:05:42.551Z,22.76
2019-05-23T06:06:42.545Z,23
2019-05-23T06:07:42.556Z,23.38
2019-05-23T06:08:42.571Z,23.79
2019-05-23T06:09:42.562Z,24.21
2019-05-23T06:10:42.561Z,24.5
2019-05-23T06:11:42.578Z,24.83
2019-05-23T06:12:42.565Z,25.06
2019-05-23T06:13:42.582Z,25.35
2019-05-23T06:14:46.333Z,25.57
2019-05-23T06:15:42.582Z,25.65
2019-05-23T06:16:42.810Z,25.75
2019-05-23T06:17:42.597Z,25.82
2019-05-23T06:18:42.598Z,25.98
2019-05-23T06:19:42.671Z,26.09
2019-05-23T06:20:45.557Z,26.3
2019-05-23T06:21:42.415Z,26.37
2019-05-23T06:22:42.634Z,26.52
2019-05-23T06:23:42.701Z,26.81
2019-05-23T06:24:58.277Z,27.29
2019-05-23T06:25:42.663Z,27.54
2019-05-23T06:26:42.420Z,28
2019-05-23T06:27:42.693Z,28.37
2019-05-23T06:28:42.688Z,28.77
2019-05-23T06:29:42.695Z,29.08
2019-05-23T06:31:42.706Z,29.6
2019-05-23T06:32:57.421Z,29.79
2019-05-23T06:33:42.724Z,29.97
2019-05-23T06:34:42.742Z,30.11
2019-05-23T06:35:44.022Z,30.38
2019-05-23T06:36:42.763Z,30.49
2019-05-23T06:37:42.770Z,30.73
2019-05-23T06:38:42.783Z,31.13
2019-05-23T06:39:42.791Z,31.34
2019-05-23T06:41:42.793Z,31.73
2019-05-23T06:42:42.821Z,31.92
2019-05-23T06:43:42.821Z,32.21
2019-05-23T06:44:42.898Z,32.4
2019-05-23T06:45:42.874Z,32.52
2019-05-23T06:46:44.156Z,32.74
2019-05-23T06:47:42.909Z,32.88
2019-05-23T06:48:48.132Z,33.04
2019-05-23T06:49:42.894Z,33.15
2019-05-23T06:50:42.909Z,33.45
2019-05-23T06:51:42.924Z,33.6
2019-05-23T06:52:42.951Z,33.78
2019-05-23T06:53:42.950Z,34
2019-05-23T06:54:42.958Z,34.16
2019-05-23T06:55:42.975Z,34.16
2019-05-23T06:56:43.001Z,34.3
2019-05-23T06:57:43.004Z,34.27
2019-05-23T06:59:43.032Z,34.34
2019-05-23T07:00:43.153Z,34.44
2019-05-23T07:01:43.050Z,34.53
2019-05-23T07:02:43.079Z,34.8
2019-05-23T07:03:48.165Z,35.16
2019-05-23T07:04:42.891Z,35.23
2019-05-23T07:05:43.117Z,35.14
2019-05-23T07:06:43.180Z,35.16
2019-05-23T07:07:43.294Z,35.25
2019-05-23T07:08:42.990Z,35.38
2019-05-23T07:09:43.211Z,35.23
2019-05-23T07:10:44.191Z,35.07
2019-05-23T07:11:43.203Z,35.07
2019-05-23T07:12:42.984Z,34.8
2019-05-23T07:13:43.273Z,34.62
2019-05-23T07:14:43.270Z,34.52
2019-05-23T07:15:43.258Z,34.42
2019-05-23T07:16:43.268Z,34.52
2019-05-23T07:17:43.279Z,34.58
2019-05-23T07:18:43.329Z,34.65
2019-05-23T07:19:43.308Z,34.84
2019-05-23T07:20:43.328Z,35
2019-05-23T07:21:43.339Z,35.09
2019-05-23T07:22:43.402Z,35.09
2019-05-23T07:23:43.406Z,35.07
2019-05-23T07:25:29.051Z,35.22
2019-05-23T07:25:43.411Z,35.21
2019-05-23T07:26:56.182Z,35.33
2019-05-23T07:27:55.982Z,35.28
2019-05-23T07:28:43.459Z,35.34
2019-05-23T07:29:58.143Z,35.41
2019-05-23T07:31:43.590Z,35.56
2019-05-23T07:32:56.261Z,35.52
2019-05-23T07:34:02.847Z,35.45
2019-05-23T07:34:43.545Z,35.48
2019-05-23T07:35:43.589Z,35.16
2019-05-23T07:36:43.698Z,34.62
2019-05-23T07:37:43.785Z,34.16
2019-05-23T07:38:43.712Z,33.79
2019-05-23T07:39:43.613Z,33.57
2019-05-23T07:40:43.834Z,33.39
2019-05-23T07:41:43.639Z,33.26
2019-05-23T07:42:43.664Z,33.42
2019-05-23T07:43:43.670Z,33.47
2019-05-23T07:44:52.871Z,33.76
2019-05-23T07:45:44.724Z,33.86
2019-05-23T07:46:43.716Z,33.94
2019-05-23T07:47:45.027Z,33.82
2019-05-23T07:48:43.740Z,33.79
2019-05-23T07:49:43.761Z,33.68
2019-05-23T07:50:43.851Z,33.5
2019-05-23T07:51:43.781Z,33.29
2019-05-23T07:52:43.790Z,32.84
2019-05-23T07:53:46.418Z,32.23
2019-05-23T07:54:43.822Z,31.76
2019-05-23T07:55:43.874Z,31.48
2019-05-23T07:56:43.864Z,31.39
2019-05-23T07:57:43.876Z,31.38
2019-05-23T07:58:43.872Z,31.5
2019-05-23T07:59:43.888Z,31.88
2019-05-23T08:00:43.907Z,32.14
2019-05-23T08:01:43.987Z,32.52
2019-05-23T08:02:44.008Z,32.78
2019-05-23T08:03:43.790Z,32.82
2019-05-23T08:04:43.964Z,32.78
2019-05-23T08:05:43.980Z,32.78
2019-05-23T08:06:47.972Z,32.77
2019-05-23T08:07:44.133Z,32.88
2019-05-23T08:08:43.773Z,33.03
2019-05-23T08:09:44.022Z,33.14
2019-05-23T08:10:44.128Z,33.07
2019-05-23T08:12:44.065Z,32.74
2019-05-23T08:13:44.275Z,32.56
2019-05-23T08:14:44.104Z,32.56
2019-05-23T08:15:43.986Z,32.63
2019-05-23T08:16:44.111Z,32.59
2019-05-23T08:17:43.914Z,32.51
2019-05-23T08:18:44.138Z,32.56
2019-05-23T08:19:54.218Z,32.62
2019-05-23T08:20:44.179Z,32.74
2019-05-23T08:21:44.203Z,32.65
2019-05-23T08:22:44.208Z,32.5
2019-05-23T08:23:44.217Z,32.21
2019-05-23T08:24:44.229Z,31.72
2019-05-23T08:25:44.236Z,31.19
2019-05-23T08:26:44.284Z,30.77
2019-05-23T08:27:44.323Z,30.34
2019-05-23T08:29:28.255Z,29.82
2019-05-23T08:29:44.284Z,29.7
2019-05-23T08:30:44.301Z,29.68
2019-05-23T08:31:44.312Z,29.76
2019-05-23T08:32:44.328Z,29.79
2019-05-23T08:33:44.337Z,29.83
2019-05-23T08:34:47.390Z,29.87
2019-05-23T08:35:44.361Z,30.01
2019-05-23T08:36:44.373Z,29.95
2019-05-23T08:37:44.394Z,29.83
2019-05-23T08:38:44.399Z,29.37
2019-05-23T08:39:44.415Z,28.86
2019-05-23T08:40:44.456Z,28.59
2019-05-23T08:41:44.433Z,28.37
2019-05-23T08:42:44.477Z,28.14
2019-05-23T08:43:44.448Z,28.06
2019-05-23T08:44:44.484Z,28.03
2019-05-23T08:45:44.481Z,28.02
2019-05-23T08:46:44.498Z,27.75
2019-05-23T08:47:44.503Z,27.5
2019-05-23T08:48:44.504Z,27.22
2019-05-23T08:49:44.585Z,27.02
2019-05-23T08:50:44.521Z,26.8
2019-05-23T08:51:44.535Z,26.54
2019-05-23T08:52:44.548Z,26.25
2019-05-23T08:53:44.555Z,25.91
2019-05-23T08:54:44.578Z,25.73
2019-05-23T08:55:44.570Z,25.55
2019-05-23T08:56:44.639Z,25.23
2019-05-23T08:57:44.581Z,25.06
2019-05-23T08:58:44.586Z,24.8
2019-05-23T08:59:44.599Z,24.68
2019-05-23T09:00:44.618Z,24.4
2019-05-23T09:01:44.609Z,24.16
2019-05-23T09:02:44.620Z,24.12
2019-05-23T09:03:44.621Z,24.02
2019-05-23T09:05:06.553Z,23.54
2019-05-23T09:05:44.631Z,23.17
2019-05-23T09:06:44.766Z,22.52
2019-05-23T09:07:44.641Z,22.2
2019-05-23T09:08:44.642Z,21.92
2019-05-23T09:09:45.918Z,21.74
2019-05-23T09:10:44.643Z,21.74
2019-05-23T09:11:44.650Z,21.65
2019-05-23T09:12:44.653Z,21.67
2019-05-23T09:13:44.658Z,21.67
2019-05-23T09:14:44.414Z,21.64
2019-05-23T09:15:44.869Z,21.71
2019-05-23T09:16:44.723Z,21.65
2019-05-23T09:17:57.473Z,21.59
2019-05-23T09:18:44.653Z,21.59
2019-05-23T09:19:44.652Z,21.5
2019-05-23T09:20:44.681Z,21.38
2019-05-23T09:21:44.654Z,21.34
2019-05-23T09:22:44.659Z,21.22
2019-05-23T09:23:44.659Z,21.07
2019-05-23T09:24:44.650Z,20.97
2019-05-23T09:25:44.657Z,20.89
2019-05-23T09:26:44.646Z,20.73
2019-05-23T09:27:44.653Z,20.69
2019-05-23T09:28:44.413Z,20.72
2019-05-23T09:29:44.645Z,20.72
2019-05-23T09:30:44.668Z,20.72
2019-05-23T09:31:44.648Z,20.72
2019-05-23T09:32:44.646Z,20.69
2019-05-23T09:33:44.645Z,20.54
2019-05-23T09:34:44.654Z,20.35
2019-05-23T09:35:44.640Z,20.2
2019-05-23T09:36:44.637Z,19.91
2019-05-23T09:37:44.649Z,19.86
2019-05-23T09:38:44.633Z,19.58
2019-05-23T09:39:44.395Z,19.5
2019-05-23T09:40:44.638Z,19.44
2019-05-23T09:41:44.633Z,19.46
2019-05-23T09:42:45.908Z,19.36
2019-05-23T09:43:44.673Z,19.47
2019-05-23T09:44:44.634Z,19.56
2019-05-23T09:45:44.641Z,19.69
2019-05-23T09:46:44.631Z,19.71
2019-05-23T09:47:44.634Z,19.84
2019-05-23T09:48:44.615Z,19.69
2019-05-23T09:49:53.418Z,19.8
2019-05-23T09:50:44.639Z,19.76
2019-05-23T09:51:45.320Z,19.81
2019-05-23T09:52:44.605Z,19.84
2019-05-23T09:53:49.671Z,19.98
2019-05-23T09:54:44.453Z,19.87
2019-05-23T09:55:44.603Z,19.96
2019-05-23T09:56:44.605Z,20.02
2019-05-23T09:57:44.600Z,20.02
2019-05-23T09:58:44.592Z,19.91
2019-05-23T09:59:44.615Z,19.94
2019-05-23T10:00:44.592Z,19.81
2019-05-23T10:01:44.705Z,19.68
2019-05-23T10:02:44.601Z,19.51
2019-05-23T10:03:44.582Z,19.36
2019-05-23T10:04:44.627Z,19.13
2019-05-23T10:05:48.534Z,18.95
2019-05-23T10:06:48.640Z,19.02
2019-05-23T10:07:44.574Z,18.99
2019-05-23T10:08:44.567Z,19.06
2019-05-23T10:14:44.548Z,19.29
2019-05-23T10:15:44.570Z,19.26
2019-05-23T10:16:44.541Z,19.22
2019-05-23T10:17:44.555Z,19.23
2019-05-23T10:18:44.538Z,19.31
2019-05-23T10:19:44.535Z,19.31
2019-05-23T10:20:44.532Z,19.4
2019-05-23T10:21:44.530Z,19.4
2019-05-23T10:22:44.523Z,19.48
2019-05-23T10:23:44.522Z,19.55
2019-05-23T10:24:44.523Z,19.65
2019-05-23T10:25:44.545Z,19.62
2019-05-23T10:26:44.512Z,19.65
2019-05-23T10:27:44.538Z,19.62
2019-05-23T10:28:44.523Z,19.63
2019-05-23T10:29:44.518Z,19.71
2019-05-23T10:30:44.503Z,19.78
2019-05-23T10:31:44.494Z,19.73
2019-05-23T10:32:44.498Z,19.81
2019-05-23T10:33:44.490Z,19.81
2019-05-23T10:34:44.487Z,19.83
2019-05-23T10:36:02.170Z,19.96
2019-05-23T10:36:44.488Z,19.98
2019-05-23T10:37:44.481Z,20.01
2019-05-23T10:38:44.484Z,19.84
2019-05-23T10:39:44.483Z,19.94
2019-05-23T10:40:44.476Z,19.92
2019-05-23T10:41:44.470Z,19.88
2019-05-23T10:42:44.463Z,19.8
2019-05-23T10:43:44.460Z,19.86
2019-05-23T10:44:47.433Z,19.83
2019-05-23T10:45:44.454Z,19.88
2019-05-23T10:46:44.451Z,19.92
2019-05-23T10:48:10.180Z,19.94
2019-05-23T10:48:44.509Z,19.95
2019-05-23T10:49:44.456Z,19.87
2019-05-23T10:50:49.616Z,19.92
2019-05-23T10:51:44.440Z,19.92
2019-05-23T10:52:44.456Z,19.94
2019-05-23T10:53:44.430Z,19.83
2019-05-23T10:54:44.432Z,19.77
2019-05-23T10:56:03.412Z,19.77
2019-05-23T10:56:44.429Z,19.86
2019-05-23T10:57:44.433Z,19.78
2019-05-23T10:58:44.424Z,19.77
2019-05-23T10:59:44.430Z,19.8
2019-05-23T11:00:44.418Z,19.83
2019-05-23T11:01:44.186Z,19.84
2019-05-23T11:02:44.548Z,19.81
2019-05-23T11:03:44.402Z,19.77
2019-05-23T11:04:44.404Z,19.66
2019-05-23T11:05:44.407Z,19.66
2019-05-23T11:06:44.404Z,19.69
2019-05-23T11:07:44.422Z,19.71
2019-05-23T11:08:44.454Z,19.77
2019-05-23T11:09:44.393Z,19.73
2019-05-23T11:10:44.396Z,19.59
2019-05-23T11:11:44.455Z,19.48
2019-05-23T11:12:44.405Z,19.41
2019-05-23T11:13:44.428Z,19.37
2019-05-23T11:14:44.404Z,19.41
2019-05-23T11:15:44.382Z,19.48
2019-05-23T11:16:44.379Z,19.51
2019-05-23T11:17:44.383Z,19.68
2019-05-23T11:18:44.396Z,19.71
2019-05-23T11:19:44.414Z,19.65
2019-05-23T11:20:44.362Z,19.73
2019-05-23T11:21:44.395Z,19.71
2019-05-23T11:22:44.361Z,19.86
2019-05-23T11:23:44.354Z,19.88
2019-05-23T11:24:44.351Z,19.94
2019-05-23T11:25:44.392Z,20.11
2019-05-23T11:26:44.341Z,20.13
2019-05-23T11:27:44.563Z,20.21
2019-05-23T11:28:44.351Z,20.14
2019-05-23T11:29:44.350Z,20.31
2019-05-23T11:30:57.065Z,20.06
2019-05-23T11:44:44.316Z,20.66
